地図

経路データ

SID SEASON NUMBER BASIN SUBBASIN NAME ISO_TIME NATURE LAT LON WMO_WIND WMO_PRES WMO_AGENCY TRACK_TYPE DIST2LAND LANDFALL IFLAG USA_AGENCY USA_ATCF_ID USA_LAT USA_LON USA_RECORD USA_STATUS USA_WIND USA_PRES USA_SSHS USA_R34_NE USA_R34_SE USA_R34_SW USA_R34_NW USA_R50_NE USA_R50_SE USA_R50_SW USA_R50_NW USA_R64_NE USA_R64_SE USA_R64_SW USA_R64_NW USA_POCI USA_ROCI USA_RMW USA_EYE TOKYO_LAT TOKYO_LON TOKYO_GRADE TOKYO_WIND TOKYO_PRES TOKYO_R50_DIR TOKYO_R50_LONG TOKYO_R50_SHORT TOKYO_R30_DIR TOKYO_R30_LONG TOKYO_R30_SHORT TOKYO_LAND CMA_LAT CMA_LON CMA_CAT CMA_WIND CMA_PRES HKO_LAT HKO_LON HKO_CAT HKO_WIND HKO_PRES NEWDELHI_LAT NEWDELHI_LON NEWDELHI_GRADE NEWDELHI_WIND NEWDELHI_PRES NEWDELHI_CI NEWDELHI_DP NEWDELHI_POCI REUNION_LAT REUNION_LON REUNION_TYPE REUNION_WIND REUNION_PRES REUNION_TNUM REUNION_CI REUNION_RMW REUNION_R34_NE REUNION_R34_SE REUNION_R34_SW REUNION_R34_NW REUNION_R50_NE REUNION_R50_SE REUNION_R50_SW REUNION_R50_NW REUNION_R64_NE REUNION_R64_SE REUNION_R64_SW REUNION_R64_NW BOM_LAT BOM_LON BOM_TYPE BOM_WIND BOM_PRES BOM_TNUM BOM_CI BOM_RMW BOM_R34_NE BOM_R34_SE BOM_R34_SW BOM_R34_NW BOM_R50_NE BOM_R50_SE BOM_R50_SW BOM_R50_NW BOM_R64_NE BOM_R64_SE BOM_R64_SW BOM_R64_NW BOM_ROCI BOM_POCI BOM_EYE BOM_POS_METHOD BOM_PRES_METHOD NADI_LAT NADI_LON NADI_CAT NADI_WIND NADI_PRES WELLINGTON_LAT WELLINGTON_LON WELLINGTON_WIND WELLINGTON_PRES DS824_LAT DS824_LON DS824_STAGE DS824_WIND DS824_PRES TD9636_LAT TD9636_LON TD9636_STAGE TD9636_WIND TD9636_PRES TD9635_LAT TD9635_LON TD9635_WIND TD9635_PRES TD9635_ROCI NEUMANN_LAT NEUMANN_LON NEUMANN_CLASS NEUMANN_WIND NEUMANN_PRES MLC_LAT MLC_LON MLC_CLASS MLC_WIND MLC_PRES USA_GUST BOM_GUST BOM_GUST_PER REUNION_GUST REUNION_GUST_PER USA_SEAHGT USA_SEARAD_NE USA_SEARAD_SE USA_SEARAD_SW USA_SEARAD_NW STORM_SPEED STORM_DIR
1995270N10322 1995 72 NA NA NOEL 1995-09-26 18:00:00 TS 10.4000 -37.7000 25 1007 hurdat_atl main 1508 1506 O_____________ hurdat_atl AL161995 10.4000 -37.7000 TD 25 1007 -1 14 291
1995270N10322 1995 72 NA NA NOEL 1995-09-26 21:00:00 TS 10.6553 -38.3698 main 1531 1529 P_____________ AL161995 10.6553 -38.3698 TD 27 1006 -1 14 291
1995270N10322 1995 72 NA NA NOEL 1995-09-27 00:00:00 TS 10.9000 -39.0000 30 1006 hurdat_atl main 1535 1507 O_____________ hurdat_atl AL161995 10.9000 -39.0000 TD 30 1006 -1 13 292
1995270N10322 1995 72 NA NA NOEL 1995-09-27 03:00:00 TS 11.1349 -39.5526 main 1497 1477 P_____________ AL161995 11.1349 -39.5526 TD 30 1005 -1 11 297
1995270N10322 1995 72 NA NA NOEL 1995-09-27 06:00:00 TS 11.4000 -40.0000 30 1005 hurdat_atl main 1477 1461 O_____________ hurdat_atl AL161995 11.4000 -40.0000 TD 30 1005 -1 10 308
1995270N10322 1995 72 NA NA NOEL 1995-09-27 09:00:00 TS 11.7349 -40.3451 main 1467 1459 P_____________ AL161995 11.7349 -40.3451 TD 32 1005 -1 9 320
1995270N10322 1995 72 NA NA NOEL 1995-09-27 12:00:00 TS 12.1000 -40.6000 35 1005 hurdat_atl main 1466 1464 O_____________ hurdat_atl AL161995 12.1000 -40.6000 TS 35 1005 0 9 328
1995270N10322 1995 72 NA NA NOEL 1995-09-27 15:00:00 TS 12.4499 -40.8076 main 1468 1467 P_____________ AL161995 12.4499 -40.8076 TS 37 1003 0 8 331
1995270N10322 1995 72 NA NA NOEL 1995-09-27 18:00:00 TS 12.8000 -41.0000 40 1002 hurdat_atl main 1479 1477 O_____________ hurdat_atl AL161995 12.8000 -41.0000 TS 40 1002 0 8 329
1995270N10322 1995 72 NA NA NOEL 1995-09-27 21:00:00 TS 13.1650 -41.2425 main 1491 1482 P_____________ AL161995 13.1650 -41.2425 TS 42 1001 0 9 325
1995270N10322 1995 72 NA NA NOEL 1995-09-28 00:00:00 TS 13.5000 -41.5000 45 1000 hurdat_atl main 1490 1489 O_____________ hurdat_atl AL161995 13.5000 -41.5000 TS 45 1000 0 8 320
1995270N10322 1995 72 NA NA NOEL 1995-09-28 03:00:00 TS 13.7650 -41.7576 main 1489 1489 P_____________ AL161995 13.7650 -41.7576 TS 47 999 0 7 316
1995270N10322 1995 72 NA NA NOEL 1995-09-28 06:00:00 TS 14.0000 -42.0000 50 998 hurdat_atl main 1490 1490 O_____________ hurdat_atl AL161995 14.0000 -42.0000 TS 50 998 0 7 316
1995270N10322 1995 72 NA NA NOEL 1995-09-28 09:00:00 TS 14.2350 -42.2225 main 1492 1492 P_____________ AL161995 14.2350 -42.2225 TS 55 996 0 6 322
1995270N10322 1995 72 NA NA NOEL 1995-09-28 12:00:00 TS 14.5000 -42.4000 60 995 hurdat_atl main 1502 1502 O_____________ hurdat_atl AL161995 14.5000 -42.4000 TS 60 995 0 7 334
1995270N10322 1995 72 NA NA NOEL 1995-09-28 15:00:00 TS 14.8350 -42.5300 main 1520 1520 P_____________ AL161995 14.8350 -42.5300 TS 62 991 0 7 345
1995270N10322 1995 72 NA NA NOEL 1995-09-28 18:00:00 TS 15.2000 -42.6000 65 987 hurdat_atl main 1548 1548 O_____________ hurdat_atl AL161995 15.2000 -42.6000 HU 65 987 1 7 351
1995270N10322 1995 72 NA NA NOEL 1995-09-28 21:00:00 TS 15.5575 -42.6449 main 1583 1583 P_____________ AL161995 15.5575 -42.6449 HU 65 987 1 7 0
1995270N10322 1995 72 NA NA NOEL 1995-09-29 00:00:00 TS 15.9000 -42.6000 65 987 hurdat_atl main 1610 1610 O_____________ hurdat_atl AL161995 15.9000 -42.6000 HU 65 987 1 7 19
1995270N10322 1995 72 NA NA NOEL 1995-09-29 03:00:00 TS 16.1851 -42.4225 main 1649 1649 P_____________ AL161995 16.1851 -42.4225 HU 65 987 1 7 33
1995270N10322 1995 72 NA NA NOEL 1995-09-29 06:00:00 TS 16.5000 -42.2000 65 987 hurdat_atl main 1689 1689 O_____________ hurdat_atl AL161995 16.5000 -42.2000 HU 65 987 1 8 24
1995270N10322 1995 72 NA NA NOEL 1995-09-29 09:00:00 TS 16.9349 -42.0722 main 1731 1731 P_____________ AL161995 16.9349 -42.0722 HU 65 987 1 10 18
1995270N10322 1995 72 NA NA NOEL 1995-09-29 12:00:00 TS 17.4000 -41.9000 65 987 hurdat_atl main 1789 1789 O_____________ hurdat_atl AL161995 17.4000 -41.9000 HU 65 987 1 10 28
1995270N10322 1995 72 NA NA NOEL 1995-09-29 15:00:00 TS 17.8151 -41.5726 main 1844 1844 P_____________ AL161995 17.8151 -41.5726 HU 65 987 1 10 40
1995270N10322 1995 72 NA NA NOEL 1995-09-29 18:00:00 TS 18.2000 -41.2000 65 987 hurdat_atl main 1905 1905 O_____________ hurdat_atl AL161995 18.2000 -41.2000 HU 65 987 1 10 41
1995270N10322 1995 72 NA NA NOEL 1995-09-29 21:00:00 TS 18.5725 -40.8700 main 1960 1960 P_____________ AL161995 18.5725 -40.8700 HU 65 987 1 9 39
1995270N10322 1995 72 NA NA NOEL 1995-09-30 00:00:00 TS 18.9000 -40.6000 65 987 hurdat_atl main 2006 2006 O_____________ hurdat_atl AL161995 18.9000 -40.6000 HU 65 987 1 7 36
1995270N10322 1995 72 NA NA NOEL 1995-09-30 03:00:00 TS 19.1799 -40.4124 main 2045 2045 P_____________ AL161995 19.1799 -40.4124 HU 65 987 1 6 30
1995270N10322 1995 72 NA NA NOEL 1995-09-30 06:00:00 TS 19.4000 -40.3000 65 987 hurdat_atl main 2069 2069 O_____________ hurdat_atl AL161995 19.4000 -40.3000 HU 65 987 1 4 23
1995270N10322 1995 72 NA NA NOEL 1995-09-30 09:00:00 TS 19.5800 -40.2349 main 2094 2094 P_____________ AL161995 19.5800 -40.2349 HU 62 988 0 3 17
1995270N10322 1995 72 NA NA NOEL 1995-09-30 12:00:00 TS 19.7000 -40.2000 60 990 hurdat_atl main 2103 2103 O_____________ hurdat_atl AL161995 19.7000 -40.2000 TS 60 990 0 2 28
1995270N10322 1995 72 NA NA NOEL 1995-09-30 15:00:00 TS 19.7650 -40.1350 main 2118 2118 P_____________ AL161995 19.7650 -40.1350 TS 57 991 0 1 43
1995270N10322 1995 72 NA NA NOEL 1995-09-30 18:00:00 TS 19.8000 -40.1000 55 993 hurdat_atl main 2118 2118 O_____________ hurdat_atl AL161995 19.8000 -40.1000 TS 55 993 0 1 16
1995270N10322 1995 72 NA NA NOEL 1995-09-30 21:00:00 TS 19.8500 -40.1350 main 2127 2121 P_____________ AL161995 19.8500 -40.1350 TS 52 993 0 1 317
1995270N10322 1995 72 NA NA NOEL 1995-10-01 00:00:00 TS 19.9000 -40.2000 50 994 hurdat_atl main 2121 2121 O_____________ hurdat_atl AL161995 19.9000 -40.2000 TS 50 994 0 1 315
1995270N10322 1995 72 NA NA NOEL 1995-10-01 03:00:00 TS 19.9500 -40.2500 main 2130 2114 P_____________ AL161995 19.9500 -40.2500 TS 50 994 0 1 317
1995270N10322 1995 72 NA NA NOEL 1995-10-01 06:00:00 TS 20.0000 -40.3000 50 995 hurdat_atl main 2124 2117 O_____________ hurdat_atl AL161995 20.0000 -40.3000 TS 50 995 0 1 306
1995270N10322 1995 72 NA NA NOEL 1995-10-01 09:00:00 TS 20.0275 -40.3575 main 2117 2117 P_____________ AL161995 20.0275 -40.3575 TS 47 997 0 1 317
1995270N10322 1995 72 NA NA NOEL 1995-10-01 12:00:00 TS 20.1000 -40.4000 45 1000 hurdat_atl main 2127 2127 O_____________ hurdat_atl AL161995 20.1000 -40.4000 TS 45 1000 0 3 347
1995270N10322 1995 72 NA NA NOEL 1995-10-01 15:00:00 TS 20.2775 -40.4225 main 2144 2144 P_____________ AL161995 20.2775 -40.4225 TS 45 1000 0 4 0
1995270N10322 1995 72 NA NA NOEL 1995-10-01 18:00:00 TS 20.5000 -40.4000 45 1000 hurdat_atl main 2161 2161 O_____________ hurdat_atl AL161995 20.5000 -40.4000 TS 45 1000 0 4 14
1995270N10322 1995 72 NA NA NOEL 1995-10-01 21:00:00 TS 20.6850 -40.3075 main 2185 2185 P_____________ AL161995 20.6850 -40.3075 TS 45 1000 0 4 25
1995270N10322 1995 72 NA NA NOEL 1995-10-02 00:00:00 TS 20.9000 -40.2000 45 1000 hurdat_atl main 2209 2209 O_____________ hurdat_atl AL161995 20.9000 -40.2000 TS 45 1000 0 5 18
1995270N10322 1995 72 NA NA NOEL 1995-10-02 03:00:00 TS 21.1625 -40.1424 main 2242 2242 P_____________ AL161995 21.1625 -40.1424 TS 45 1000 0 6 9
1995270N10322 1995 72 NA NA NOEL 1995-10-02 06:00:00 TS 21.5000 -40.1000 45 1000 hurdat_atl main 2268 2268 O_____________ hurdat_atl AL161995 21.5000 -40.1000 TS 45 1000 0 8 7
1995270N10322 1995 72 NA NA NOEL 1995-10-02 09:00:00 TS 21.9125 -40.0351 main 2310 2310 P_____________ AL161995 21.9125 -40.0351 TS 45 1000 0 9 5
1995270N10322 1995 72 NA NA NOEL 1995-10-02 12:00:00 TS 22.4000 -40.0000 45 1000 hurdat_atl main 2354 2354 O_____________ hurdat_atl AL161995 22.4000 -40.0000 TS 45 1000 0 10 0
1995270N10322 1995 72 NA NA NOEL 1995-10-02 15:00:00 TS 22.9275 -40.0275 main 2365 2364 P_____________ AL161995 22.9275 -40.0275 TS 45 1000 0 11 355
1995270N10322 1995 72 NA NA NOEL 1995-10-02 18:00:00 TS 23.5000 -40.1000 45 1000 hurdat_atl main 2374 2367 O_____________ hurdat_atl AL161995 23.5000 -40.1000 TS 45 1000 0 12 354
1995270N10322 1995 72 NA NA NOEL 1995-10-02 21:00:00 TS 24.1074 -40.1554 main 2374 2362 P_____________ AL161995 24.1074 -40.1554 TS 45 1000 0 12 351
1995270N10322 1995 72 NA NA NOEL 1995-10-03 00:00:00 TS 24.7000 -40.3000 45 1000 hurdat_atl main 2366 2363 O_____________ hurdat_atl AL161995 24.7000 -40.3000 TS 45 1000 0 12 340
1995270N10322 1995 72 NA NA NOEL 1995-10-03 03:00:00 TS 25.2150 -40.6050 main 2381 2379 P_____________ AL161995 25.2150 -40.6050 TS 42 1000 0 12 328
1995270N10322 1995 72 NA NA NOEL 1995-10-03 06:00:00 TS 25.7000 -41.0000 40 1000 hurdat_atl main 2408 2406 O_____________ hurdat_atl AL161995 25.7000 -41.0000 TS 40 1000 0 12 324
1995270N10322 1995 72 NA NA NOEL 1995-10-03 09:00:00 TS 26.2076 -41.4075 main 2436 2431 P_____________ AL161995 26.2076 -41.4075 TS 42 1000 0 12 324
1995270N10322 1995 72 NA NA NOEL 1995-10-03 12:00:00 TS 26.7000 -41.8000 45 1000 hurdat_atl main 2431 2379 O_____________ hurdat_atl AL161995 26.7000 -41.8000 TS 45 1000 0 12 326
1995270N10322 1995 72 NA NA NOEL 1995-10-03 15:00:00 TS 27.1574 -42.1303 main 2369 2316 P_____________ AL161995 27.1574 -42.1303 TS 45 1000 0 11 329
1995270N10322 1995 72 NA NA NOEL 1995-10-03 18:00:00 TS 27.6000 -42.4000 45 1000 hurdat_atl main 2316 2267 O_____________ hurdat_atl AL161995 27.6000 -42.4000 TS 45 1000 0 10 334
1995270N10322 1995 72 NA NA NOEL 1995-10-03 21:00:00 TS 28.0424 -42.6228 main 2267 2208 P_____________ AL161995 28.0424 -42.6228 TS 45 999 0 10 339
1995270N10322 1995 72 NA NA NOEL 1995-10-04 00:00:00 TS 28.5000 -42.8000 45 999 hurdat_atl main 2208 2149 O_____________ hurdat_atl AL161995 28.5000 -42.8000 TS 45 999 0 10 342
1995270N10322 1995 72 NA NA NOEL 1995-10-04 03:00:00 TS 29.0000 -42.9799 main 2149 2094 P_____________ AL161995 29.0000 -42.9799 TS 47 998 0 10 345
1995270N10322 1995 72 NA NA NOEL 1995-10-04 06:00:00 TS 29.5000 -43.1000 50 998 hurdat_atl main 2094 2052 O_____________ hurdat_atl AL161995 29.5000 -43.1000 TS 50 998 0 10 352
1995270N10322 1995 72 NA NA NOEL 1995-10-04 09:00:00 TS 29.9575 -43.1302 main 2042 2001 P_____________ AL161995 29.9575 -43.1302 TS 50 997 0 9 0
1995270N10322 1995 72 NA NA NOEL 1995-10-04 12:00:00 TS 30.4000 -43.1000 50 997 hurdat_atl main 2001 1960 O_____________ hurdat_atl AL161995 30.4000 -43.1000 TS 50 997 0 9 4
1995270N10322 1995 72 NA NA NOEL 1995-10-04 15:00:00 TS 30.8725 -43.0724 main 1950 1913 P_____________ AL161995 30.8725 -43.0724 TS 52 995 0 9 5
1995270N10322 1995 72 NA NA NOEL 1995-10-04 18:00:00 TS 31.3000 -43.0000 55 994 hurdat_atl main 1913 1886 O_____________ hurdat_atl AL161995 31.3000 -43.0000 TS 55 994 0 8 13
1995270N10322 1995 72 NA NA NOEL 1995-10-04 21:00:00 TS 31.6450 -42.8726 main 1886 1864 P_____________ AL161995 31.6450 -42.8726 TS 60 990 0 7 23
1995270N10322 1995 72 NA NA NOEL 1995-10-05 00:00:00 TS 31.9000 -42.7000 65 987 hurdat_atl main 1864 1848 O_____________ hurdat_atl AL161995 31.9000 -42.7000 HU 65 987 1 5 33
1995270N10322 1995 72 NA NA NOEL 1995-10-05 03:00:00 TS 32.0798 -42.5373 main 1852 1846 P_____________ AL161995 32.0798 -42.5373 HU 65 987 1 5 48
1995270N10322 1995 72 NA NA NOEL 1995-10-05 06:00:00 TS 32.2000 -42.3000 65 987 hurdat_atl main 1850 1845 O_____________ hurdat_atl AL161995 32.2000 -42.3000 HU 65 987 1 6 64
1995270N10322 1995 72 NA NA NOEL 1995-10-05 09:00:00 TS 32.3224 -41.9451 main 1858 1852 P_____________ AL161995 32.3224 -41.9451 HU 65 987 1 7 74
1995270N10322 1995 72 NA NA NOEL 1995-10-05 12:00:00 TS 32.4000 -41.5000 65 987 hurdat_atl main 1866 1866 O_____________ hurdat_atl AL161995 32.4000 -41.5000 HU 65 987 1 8 84
1995270N10322 1995 72 NA NA NOEL 1995-10-05 15:00:00 TS 32.4074 -41.0222 main 1889 1889 P_____________ AL161995 32.4074 -41.0222 HU 65 987 1 8 90
1995270N10322 1995 72 NA NA NOEL 1995-10-05 18:00:00 TS 32.4000 -40.5000 65 987 hurdat_atl main 1912 1912 O_____________ hurdat_atl AL161995 32.4000 -40.5000 HU 65 987 1 9 87
1995270N10322 1995 72 NA NA NOEL 1995-10-05 21:00:00 TS 32.4498 -39.9652 main 1936 1932 P_____________ AL161995 32.4498 -39.9652 HU 62 988 0 9 84
1995270N10322 1995 72 NA NA NOEL 1995-10-06 00:00:00 TS 32.5000 -39.4000 60 990 hurdat_atl main 1957 1957 O_____________ hurdat_atl AL161995 32.5000 -39.4000 TS 60 990 0 10 87
1995270N10322 1995 72 NA NA NOEL 1995-10-06 03:00:00 TS 32.5072 -38.8149 main 1987 1987 P_____________ AL161995 32.5072 -38.8149 TS 57 992 0 10 90
1995270N10322 1995 72 NA NA NOEL 1995-10-06 06:00:00 TS 32.5000 -38.2000 55 994 hurdat_atl main 2019 2019 O_____________ hurdat_atl AL161995 32.5000 -38.2000 TS 55 994 0 10 91
1995270N10322 1995 72 NA NA NOEL 1995-10-06 09:00:00 TS 32.4844 -37.5796 main 2042 1977 P_____________ AL161995 32.4844 -37.5796 TS 52 995 0 11 90
1995270N10322 1995 72 NA NA NOEL 1995-10-06 12:00:00 TS 32.5000 -36.9000 50 997 hurdat_atl main 1977 1914 O_____________ hurdat_atl AL161995 32.5000 -36.9000 TS 50 997 0 12 86
1995270N10322 1995 72 NA NA NOEL 1995-10-06 15:00:00 TS 32.5621 -36.1370 main 1905 1833 P_____________ AL161995 32.5621 -36.1370 TS 45 999 0 14 82
1995270N10322 1995 72 NA NA NOEL 1995-10-06 18:00:00 TS 32.7000 -35.3000 40 1001 hurdat_atl main 1833 1765 O_____________ hurdat_atl AL161995 32.7000 -35.3000 TS 40 1001 0 14 76
1995270N10322 1995 72 NA NA NOEL 1995-10-06 21:00:00 TS 32.9034 -34.4663 main 1765 1691 P_____________ AL161995 32.9034 -34.4663 TS 37 1002 0 16 72
1995270N10322 1995 72 NA NA NOEL 1995-10-07 00:00:00 TS 33.2000 -33.5000 35 1004 hurdat_atl main 1682 1584 O_____________ hurdat_atl AL161995 33.2000 -33.5000 TS 35 1004 0 20 71
1995270N10322 1995 72 NA NA NOEL 1995-10-07 03:00:00 TS 33.5647 -32.2284 main 1578 1494 P_____________ AL161995 33.5647 -32.2284 TS 32 1002 -1 22 69
1995270N10322 1995 72 NA NA NOEL 1995-10-07 06:00:00 ET 34.0000 -31.0000 30 1000 hurdat_atl main 1489 1444 O_____________ hurdat_atl AL161995 34.0000 -31.0000 EX 30 1000 -4 19 62
1995270N10322 1995 72 NA NA NOEL 1995-10-07 09:00:00 ET 34.4828 -30.1735 main 1444 1411 P_____________ AL161995 34.4828 -30.1735 EX 30 998 -4 16 51
1995270N10322 1995 72 NA NA NOEL 1995-10-07 12:00:00 ET 35.0000 -29.5000 30 997 hurdat_atl main 1411 1385 O_____________ hurdat_atl AL161995 35.0000 -29.5000 EX 30 997 -4 15 48
1995270N10322 1995 72 NA NA NOEL 1995-10-07 15:00:00 ET 35.5068 -28.7773 main 1385 1356 P_____________ AL161995 35.5068 -28.7773 EX 30 996 -4 16 51
1995270N10322 1995 72 NA NA NOEL 1995-10-07 18:00:00 ET 36.0000 -28.0000 30 995 hurdat_atl main 1356 O_____________ hurdat_atl AL161995 36.0000 -28.0000 EX 30 995 -4 16 52

IBTrACS Databaseについて

本データベースは、米国NOAAが公開する1842年以降の世界の熱帯低気圧のベストトラックデータアーカイブInternational Best Track Archive for Climate Stewardship (IBTrACS)を、ウェブで閲覧しやすい形式に変換したものです。

最終更新日:2021-11-26